Greenville, Missouri
Current Conditions -  °F | °C
As of 4:53 PM on Monday 24 Nov 2014 (Local Time) from KPOF Reporting Station
Few Clouds Few Clouds  
Wind Chill: 51°   Ceiling: Unl
Heat Index: 51°   Visibility: 10mi
Dew Point: 26°   Wind: 8mph
Humidity: 38%   Direction: 250°WSW
Pressure: 29.87"   Gusts: NA
Location:  37.13°N, 90.45°W
Report Text: KPOF 242253Z AUTO 25007KT 10SM FEW070 11/M03 A2987 RMK AO2 SLP117 T01061033
Loading
Personal Weather Stations






























Interactive Weather Map New forecast layout! Learn more

10-Day Weather Forecast

Advertisements
Track Severe Weather on mobile